Sherbro International Airport

Jump to: basic info | weather | comments

Related pages: nearby airports | nearby navaids | notams | map

Basic information (top)

Codes: BTE GFBN
Location: lon 7.532420, lat -12.518900, elev 14 ft / 4 m msl
Status: medium_airport
Scheduled airline service: yes
Links: Wikipedia Mobile

Weather (top)

Current conditions for Lungi International Airport 77nm (142km) NNW (rec'd 2014/09/03 06:00Z):

GFLL 030600Z 09006KT 9999 BKN010 FEW026CB 23/23 Q1011 RMK CB-NE

Airport forecast for Lungi International Airport 77nm (142km) NNW (rec'd 2014/09/02 18:00Z):

TAF GFLL 021600Z 0218/0324 02025G14KT 6000 +RA BKN007 FEW027CB PR0B30 
      TEMPO 0220/0304 12010KT 7000 TSRA BKN008 FEW027CB 
      BECMG 0305/0307 27010KT 8000 BKN010 
     FM030800 16008KT 5000 BR/RA BKN009 FEW027CB

Latest comments (top)

No comments yet for Sherbro International Airport

More... (top)

See also NOTAMs and nearby airports and navaids, or visit the Sherbro International Airport page at the main OurAirports website..